地図

経路データ

SID SEASON NUMBER BASIN SUBBASIN NAME ISO_TIME NATURE LAT LON WMO_WIND WMO_PRES WMO_AGENCY TRACK_TYPE DIST2LAND LANDFALL IFLAG USA_AGENCY USA_ATCF_ID USA_LAT USA_LON USA_RECORD USA_STATUS USA_WIND USA_PRES USA_SSHS USA_R34_NE USA_R34_SE USA_R34_SW USA_R34_NW USA_R50_NE USA_R50_SE USA_R50_SW USA_R50_NW USA_R64_NE USA_R64_SE USA_R64_SW USA_R64_NW USA_POCI USA_ROCI USA_RMW USA_EYE TOKYO_LAT TOKYO_LON TOKYO_GRADE TOKYO_WIND TOKYO_PRES TOKYO_R50_DIR TOKYO_R50_LONG TOKYO_R50_SHORT TOKYO_R30_DIR TOKYO_R30_LONG TOKYO_R30_SHORT TOKYO_LAND CMA_LAT CMA_LON CMA_CAT CMA_WIND CMA_PRES HKO_LAT HKO_LON HKO_CAT HKO_WIND HKO_PRES NEWDELHI_LAT NEWDELHI_LON NEWDELHI_GRADE NEWDELHI_WIND NEWDELHI_PRES NEWDELHI_CI NEWDELHI_DP NEWDELHI_POCI REUNION_LAT REUNION_LON REUNION_TYPE REUNION_WIND REUNION_PRES REUNION_TNUM REUNION_CI REUNION_RMW REUNION_R34_NE REUNION_R34_SE REUNION_R34_SW REUNION_R34_NW REUNION_R50_NE REUNION_R50_SE REUNION_R50_SW REUNION_R50_NW REUNION_R64_NE REUNION_R64_SE REUNION_R64_SW REUNION_R64_NW BOM_LAT BOM_LON BOM_TYPE BOM_WIND BOM_PRES BOM_TNUM BOM_CI BOM_RMW BOM_R34_NE BOM_R34_SE BOM_R34_SW BOM_R34_NW BOM_R50_NE BOM_R50_SE BOM_R50_SW BOM_R50_NW BOM_R64_NE BOM_R64_SE BOM_R64_SW BOM_R64_NW BOM_ROCI BOM_POCI BOM_EYE BOM_POS_METHOD BOM_PRES_METHOD NADI_LAT NADI_LON NADI_CAT NADI_WIND NADI_PRES WELLINGTON_LAT WELLINGTON_LON WELLINGTON_WIND WELLINGTON_PRES DS824_LAT DS824_LON DS824_STAGE DS824_WIND DS824_PRES TD9636_LAT TD9636_LON TD9636_STAGE TD9636_WIND TD9636_PRES TD9635_LAT TD9635_LON TD9635_WIND TD9635_PRES TD9635_ROCI NEUMANN_LAT NEUMANN_LON NEUMANN_CLASS NEUMANN_WIND NEUMANN_PRES MLC_LAT MLC_LON MLC_CLASS MLC_WIND MLC_PRES USA_GUST BOM_GUST BOM_GUST_PER REUNION_GUST REUNION_GUST_PER USA_SEAHGT USA_SEARAD_NE USA_SEARAD_SE USA_SEARAD_SW USA_SEARAD_NW STORM_SPEED STORM_DIR
1926301N07137 1926 56 WP MM NOT_NAMED 1926-10-27 22:00:00 NR 7.30000 136.800 main 906 906 __________O___ -1 7.30000 136.800 2 7 316
1926301N07137 1926 56 WP MM NOT_NAMED 1926-10-28 00:00:00 NR 7.47759 136.625 main 925 925 __________P___ -1 7.47759 136.625 2 7 315
1926301N07137 1926 56 WP MM NOT_NAMED 1926-10-28 03:00:00 NR 7.73982 136.365 main 945 955 __________P___ -1 7.73982 136.365 2 7 315
1926301N07137 1926 56 WP MM NOT_NAMED 1926-10-28 06:00:00 NR 7.99152 136.114 main 976 976 __________P___ -1 7.99152 136.114 2 7 315
1926301N07137 1926 56 WP MM NOT_NAMED 1926-10-28 09:00:00 NR 8.22648 135.876 main 997 997 __________P___ -1 8.22648 135.876 2 7 315
1926301N07137 1926 56 WP MM NOT_NAMED 1926-10-28 10:00:00 NR 8.30000 135.800 main 1008 1005 __________O___ -1 8.30000 135.800 2 6 314
1926301N07137 1926 56 WP MM NOT_NAMED 1926-10-28 12:00:00 NR 8.43941 135.655 main 1005 974 __________P___ -1 8.43941 135.655 2 6 314
1926301N07137 1926 56 WP MM NOT_NAMED 1926-10-28 15:00:00 NR 8.63584 135.443 main 974 955 __________P___ -1 8.63584 135.443 2 6 312
1926301N07137 1926 56 WP MM NOT_NAMED 1926-10-28 18:00:00 NR 8.82821 135.226 main 955 936 __________P___ -1 8.82821 135.226 2 6 311
1926301N07137 1926 56 WP MM NOT_NAMED 1926-10-28 21:00:00 NR 9.02903 134.987 main 936 927 __________P___ -1 9.02903 134.987 2 6 310
1926301N07137 1926 56 WP MM NOT_NAMED 1926-10-28 22:00:00 NR 9.10000 134.900 main 927 907 __________O___ -1 9.10000 134.900 2 7 309
1926301N07137 1926 56 WP MM NOT_NAMED 1926-10-29 00:00:00 NR 9.24999 134.711 main 907 881 __________P___ -1 9.24999 134.711 2 8 308
1926301N07137 1926 56 WP MM NOT_NAMED 1926-10-29 03:00:00 NR 9.48746 134.403 main 881 854 __________P___ -1 9.48746 134.403 2 8 308
1926301N07137 1926 56 WP MM NOT_NAMED 1926-10-29 06:00:00 NR 9.73994 134.071 main 854 822 __________P___ -1 9.73994 134.071 2 9 308
1926301N07137 1926 56 WP MM NOT_NAMED 1926-10-29 09:00:00 NR 10.0075 133.720 main 822 814 __________P___ -1 10.0075 133.720 2 9 308
1926301N07137 1926 56 WP MM NOT_NAMED 1926-10-29 10:00:00 NR 10.1000 133.600 main 814 794 __________O___ -1 10.1000 133.600 2 9 309
1926301N07137 1926 56 WP MM NOT_NAMED 1926-10-29 12:00:00 NR 10.2752 133.382 main 797 761 __________P___ -1 10.2752 133.382 2 9 309
1926301N07137 1926 56 WP MM NOT_NAMED 1926-10-29 15:00:00 NR 10.5505 133.043 main 761 734 __________P___ -1 10.5505 133.043 2 9 309
1926301N07137 1926 56 WP MM NOT_NAMED 1926-10-29 18:00:00 NR 10.8491 132.673 main 734 701 __________P___ -1 10.8491 132.673 2 10 309
1926301N07137 1926 56 WP MM NOT_NAMED 1926-10-29 21:00:00 NR 11.1806 132.254 main 704 687 __________P___ -1 11.1806 132.254 2 11 309
1926301N07137 1926 56 WP MM NOT_NAMED 1926-10-29 22:00:00 NR 11.3000 132.100 main 687 646 __________O___ -1 11.3000 132.100 2 12 306
1926301N07137 1926 56 WP MM NOT_NAMED 1926-10-30 00:00:00 NR 11.5446 131.749 main 646 597 __________P___ -1 11.5446 131.749 2 13 305
1926301N07137 1926 56 WP MM NOT_NAMED 1926-10-30 03:00:00 NR 11.9427 131.172 main 597 542 __________P___ -1 11.9427 131.172 2 14 306
1926301N07137 1926 56 WP MM NOT_NAMED 1926-10-30 06:00:00 NR 12.3752 130.571 main 545 493 __________P___ -1 12.3752 130.571 2 15 308
1926301N07137 1926 56 WP MM NOT_NAMED 1926-10-30 09:00:00 NR 12.8389 129.985 main 493 475 __________P___ -1 12.8389 129.985 2 15 310
1926301N07137 1926 56 WP MM NOT_NAMED 1926-10-30 10:00:00 NR 13.0000 129.800 main 475 443 __________O___ -1 13.0000 129.800 2 15 315
1926301N07137 1926 56 WP MM NOT_NAMED 1926-10-30 12:00:00 NR 13.3769 129.435 main 443 414 __________P___ -1 13.3769 129.435 2 16 318
1926301N07137 1926 56 WP MM NOT_NAMED 1926-10-30 15:00:00 NR 13.9688 128.919 main 419 407 __________P___ -1 13.9688 128.919 2 15 321
1926301N07137 1926 56 WP MM NOT_NAMED 1926-10-30 18:00:00 NR 14.5284 128.464 main 414 412 __________P___ -1 14.5284 128.464 2 13 322
1926301N07137 1926 56 WP MM NOT_NAMED 1926-10-30 21:00:00 NR 14.9838 128.097 main 417 406 __________P___ -1 14.9838 128.097 2 11 322
1926301N07137 1926 56 WP MM NOT_NAMED 1926-10-30 22:00:00 NR 15.1000 128.000 main 410 403 __________O___ -1 15.1000 128.000 2 7 317
1926301N07137 1926 56 WP MM NOT_NAMED 1926-10-31 00:00:00 NR 15.2413 127.852 main 403 388 __________P___ -1 15.2413 127.852 2 4 311
1926301N07137 1926 56 WP MM NOT_NAMED 1926-10-31 03:00:00 NR 15.3340 127.720 main 388 388 __________P___ -1 15.3340 127.720 2 2 296
1926301N07137 1926 56 WP MM NOT_NAMED 1926-10-31 06:00:00 NR 15.3360 127.656 main 388 378 __________P___ -1 15.3360 127.656 2 1 254
1926301N07137 1926 56 WP MM NOT_NAMED 1926-10-31 09:00:00 NR 15.3066 127.616 main 378 378 __________P___ -1 15.3066 127.616 2 1 238
1926301N07137 1926 56 WP MM NOT_NAMED 1926-10-31 10:00:00 NR 15.3000 127.600 main 378 368 __________O___ -1 15.3000 127.600 2 3 273
1926301N07137 1926 56 WP MM NOT_NAMED 1926-10-31 12:00:00 NR 15.3148 127.463 main 368 349 __________P___ -1 15.3148 127.463 2 4 276
1926301N07137 1926 56 WP MM NOT_NAMED 1926-10-31 15:00:00 NR 15.3364 127.256 main 349 335 __________P___ -1 15.3364 127.256 2 3 281
1926301N07137 1926 56 WP MM NOT_NAMED 1926-10-31 18:00:00 NR 15.3771 127.121 main 335 335 __________P___ -1 15.3771 127.121 2 2 319
1926301N07137 1926 56 WP MM NOT_NAMED 1926-10-31 21:00:00 NR 15.4595 127.143 main 341 341 __________P___ -1 15.4595 127.143 2 2 34
1926301N07137 1926 56 WP MM NOT_NAMED 1926-10-31 22:00:00 NR 15.5000 127.200 main 350 350 __________O___ -1 15.5000 127.200 2 7 54
1926301N07137 1926 56 WP MM NOT_NAMED 1926-11-01 00:00:00 NR 15.6658 127.433 main 380 389 __________P___ -1 15.6658 127.433 2 10 58
1926301N07137 1926 56 WP MM NOT_NAMED 1926-11-01 03:00:00 NR 15.9596 127.953 main 452 452 __________P___ -1 15.9596 127.953 2 13 63
1926301N07137 1926 56 WP MM NOT_NAMED 1926-11-01 06:00:00 NR 16.2292 128.599 main 519 519 __________P___ -1 16.2292 128.599 2 13 71
1926301N07137 1926 56 WP MM NOT_NAMED 1926-11-01 09:00:00 NR 16.3872 129.281 main 595 595 __________P___ -1 16.3872 129.281 2 13 79
1926301N07137 1926 56 WP MM NOT_NAMED 1926-11-01 10:00:00 NR 16.4000 129.500 main 614 614 __________O___ -1 16.4000 129.500 2 13 96
1926301N07137 1926 56 WP MM NOT_NAMED 1926-11-01 12:00:00 NR 16.3204 129.958 main 658 658 __________P___ -1 16.3204 129.958 2 14 107
1926301N07137 1926 56 WP MM NOT_NAMED 1926-11-01 15:00:00 NR 16.0681 130.633 main 702 704 __________P___ -1 16.0681 130.633 2 13 117
1926301N07137 1926 56 WP MM NOT_NAMED 1926-11-01 18:00:00 NR 15.7145 131.199 main 729 729 __________P___ -1 15.7145 131.199 2 12 130
1926301N07137 1926 56 WP MM NOT_NAMED 1926-11-01 21:00:00 NR 15.3259 131.549 main 735 739 __________P___ -1 15.3259 131.549 2 10 143
1926301N07137 1926 56 WP MM NOT_NAMED 1926-11-01 22:00:00 NR 15.2000 131.600 main 739 730 __________O___ -1 15.2000 131.600 2 7 0
1926301N07137 1926 56 WP MM NOT_NAMED 1926-11-02 00:00:00 NR 14.9759 131.570 main 730 682 __________P___ -1 14.9759 131.570 2 8 207
1926301N07137 1926 56 WP MM NOT_NAMED 1926-11-02 03:00:00 NR 14.6400 131.299 main 682 620 __________P___ -1 14.6400 131.299 2 10 227
1926301N07137 1926 56 WP MM NOT_NAMED 1926-11-02 06:00:00 NR 14.3287 130.841 main 620 561 __________P___ -1 14.3287 130.841 2 11 240
1926301N07137 1926 56 WP MM NOT_NAMED 1926-11-02 09:00:00 NR 14.0698 130.289 main 561 537 __________P___ -1 14.0698 130.289 2 12 245
1926301N07137 1926 56 WP MM NOT_NAMED 1926-11-02 10:00:00 NR 14.0000 130.100 main 537 503 __________O___ -1 14.0000 130.100 2 11 249
1926301N07137 1926 56 WP MM NOT_NAMED 1926-11-02 12:00:00 NR 13.8779 129.769 main 503 439 __________P___ -1 13.8779 129.769 2 11 254
1926301N07137 1926 56 WP MM NOT_NAMED 1926-11-02 15:00:00 NR 13.7509 129.233 main 439 385 __________P___ -1 13.7509 129.233 2 11 260
1926301N07137 1926 56 WP MM NOT_NAMED 1926-11-02 18:00:00 NR 13.6884 128.685 main 385 337 __________P___ -1 13.6884 128.685 2 10 266
1926301N07137 1926 56 WP MM NOT_NAMED 1926-11-02 21:00:00 NR 13.6872 128.162 main 337 318 __________P___ -1 13.6872 128.162 2 10 271
1926301N07137 1926 56 WP MM NOT_NAMED 1926-11-02 22:00:00 NR 13.7000 128.000 main 318 291 __________O___ -1 13.7000 128.000 2 9 276
1926301N07137 1926 56 WP MM NOT_NAMED 1926-11-03 00:00:00 NR 13.7321 127.706 main 291 264 __________P___ -1 13.7321 127.706 2 8 281
1926301N07137 1926 56 WP MM NOT_NAMED 1926-11-03 03:00:00 NR 13.8309 127.301 main 264 249 __________P___ -1 13.8309 127.301 2 8 288
1926301N07137 1926 56 WP MM NOT_NAMED 1926-11-03 06:00:00 NR 13.9737 126.936 main 249 234 __________P___ -1 13.9737 126.936 2 7 295
1926301N07137 1926 56 WP MM NOT_NAMED 1926-11-03 09:00:00 NR 14.1417 126.604 main 234 229 __________P___ -1 14.1417 126.604 2 7 298
1926301N07137 1926 56 WP MM NOT_NAMED 1926-11-03 10:00:00 NR 14.2000 126.500 main 229 209 __________O___ -1 14.2000 126.500 2 7 298
1926301N07137 1926 56 WP MM NOT_NAMED 1926-11-03 12:00:00 NR 14.3157 126.273 main 209 181 __________P___ -1 14.3157 126.273 2 7 300
1926301N07137 1926 56 WP MM NOT_NAMED 1926-11-03 15:00:00 NR 14.5021 125.957 main 185 160 __________P___ -1 14.5021 125.957 2 7 303
1926301N07137 1926 56 WP MM NOT_NAMED 1926-11-03 18:00:00 NR 14.6874 125.682 main 166 155 __________P___ -1 14.6874 125.682 2 6 306
1926301N07137 1926 56 WP MM NOT_NAMED 1926-11-03 21:00:00 NR 14.8526 125.460 main 163 155 __________P___ -1 14.8526 125.460 2 5 308
1926301N07137 1926 56 WP MM NOT_NAMED 1926-11-03 22:00:00 NR 14.9000 125.400 main 155 147 __________O___ -1 14.9000 125.400 2 4 309
1926301N07137 1926 56 WP MM NOT_NAMED 1926-11-04 00:00:00 NR 14.9779 125.302 main 155 148 __________P___ -1 14.9779 125.302 2 3 312
1926301N07137 1926 56 WP MM NOT_NAMED 1926-11-04 03:00:00 NR 15.0699 125.204 main 156 150 __________P___ -1 15.0699 125.204 2 2 317
1926301N07137 1926 56 WP MM NOT_NAMED 1926-11-04 06:00:00 NR 15.1374 125.148 main 150 150 __________P___ -1 15.1374 125.148 2 1 322
1926301N07137 1926 56 WP MM NOT_NAMED 1926-11-04 09:00:00 NR 15.1866 125.112 main 159 159 __________P___ -1 15.1866 125.112 2 1 322
1926301N07137 1926 56 WP MM NOT_NAMED 1926-11-04 10:00:00 NR 15.2000 125.100 main 159 159 __________O___ -1 15.2000 125.100 2 1 318
1926301N07137 1926 56 WP MM NOT_NAMED 1926-11-04 12:00:00 NR 15.2281 125.066 main 159 154 __________P___ -1 15.2281 125.066 2 1 306
1926301N07137 1926 56 WP MM NOT_NAMED 1926-11-04 15:00:00 NR 15.2576 125.022 main 163 163 __________P___ -1 15.2576 125.022 2 1 298
1926301N07137 1926 56 WP MM NOT_NAMED 1926-11-04 18:00:00 NR 15.2775 124.977 main 163 159 __________P___ -1 15.2775 124.977 2 1 290
1926301N07137 1926 56 WP MM NOT_NAMED 1926-11-04 21:00:00 NR 15.2941 124.922 main 159 159 __________P___ -1 15.2941 124.922 2 1 287
1926301N07137 1926 56 WP MM NOT_NAMED 1926-11-04 22:00:00 NR 15.3000 124.900 main 159 159 __________O___ -1 15.3000 124.900 2 1 292
1926301N07137 1926 56 WP MM NOT_NAMED 1926-11-05 00:00:00 NR 15.3193 124.850 main 159 155 __________P___ -1 15.3193 124.850 2 2 291
1926301N07137 1926 56 WP MM NOT_NAMED 1926-11-05 03:00:00 NR 15.3483 124.763 main 155 155 __________P___ -1 15.3483 124.763 2 2 287
1926301N07137 1926 56 WP MM NOT_NAMED 1926-11-05 06:00:00 NR 15.3745 124.660 main 162 158 __________P___ -1 15.3745 124.660 2 2 282
1926301N07137 1926 56 WP MM NOT_NAMED 1926-11-05 09:00:00 NR 15.3950 124.543 main 158 158 __________P___ -1 15.3950 124.543 2 2 280
1926301N07137 1926 56 WP MM NOT_NAMED 1926-11-05 10:00:00 NR 15.4000 124.500 main 158 157 __________O___ -1 15.4000 124.500 2 2 285
1926301N07137 1926 56 WP MM NOT_NAMED 1926-11-05 12:00:00 NR 15.4185 124.448 main 157 157 __________P___ -1 15.4185 124.448 2 2 286
1926301N07137 1926 56 WP MM NOT_NAMED 1926-11-05 15:00:00 NR 15.4403 124.359 main 157 156 __________P___ -1 15.4403 124.359 2 2 277
1926301N07137 1926 56 WP MM NOT_NAMED 1926-11-05 18:00:00 NR 15.4442 124.222 main 156 156 __________P___ -1 15.4442 124.222 2 3 266
1926301N07137 1926 56 WP MM NOT_NAMED 1926-11-05 21:00:00 NR 15.4177 124.000 main 157 157 __________P___ -1 15.4177 124.000 2 5 262
1926301N07137 1926 56 WP MM NOT_NAMED 1926-11-05 22:00:00 NR 15.4000 123.900 main 158 144 __________O___ -1 15.4000 123.900 2 7 258
1926301N07137 1926 56 WP MM NOT_NAMED 1926-11-06 00:00:00 NR 15.3429 123.646 main 144 116 __________P___ -1 15.3429 123.646 2 9 256
1926301N07137 1926 56 WP MM NOT_NAMED 1926-11-06 03:00:00 NR 15.2255 123.178 main 116 100 __________P___ -1 15.2255 123.178 2 10 255
1926301N07137 1926 56 WP MM NOT_NAMED 1926-11-06 06:00:00 NR 15.0864 122.642 main 100 48 __________P___ -1 15.0864 122.642 2 11 255
1926301N07137 1926 56 WP MM NOT_NAMED 1926-11-06 09:00:00 NR 14.9446 122.084 main 48 31 __________P___ -1 14.9446 122.084 2 11 255
1926301N07137 1926 56 WP MM NOT_NAMED 1926-11-06 10:00:00 NR 14.9000 121.900 main 31 0 __________O___ -1 14.9000 121.900 2 10 257
1926301N07137 1926 56 WP MM NOT_NAMED 1926-11-06 12:00:00 NR 14.8273 121.572 main 0 0 __________P___ -1 14.8273 121.572 2 10 258
1926301N07137 1926 56 WP MM NOT_NAMED 1926-11-06 15:00:00 NR 14.7248 121.080 main 0 0 __________P___ -1 14.7248 121.080 2 10 258
1926301N07137 1926 56 WP MM NOT_NAMED 1926-11-06 18:00:00 NR 14.6273 120.583 main 0 0 __________P___ -1 14.6273 120.583 2 10 259
1926301N07137 1926 56 WP MM NOT_NAMED 1926-11-06 21:00:00 NR 14.5319 120.073 main 24 31 __________P___ -1 14.5319 120.073 2 10 259
1926301N07137 1926 56 WP MM NOT_NAMED 1926-11-06 22:00:00 NR 14.5000 119.900 main 39 39 __________O___ -1 14.5000 119.900 2 10 259
1926301N07137 1926 56 WP MM NOT_NAMED 1926-11-07 00:00:00 NR 14.4332 119.545 main 78 78 __________P___ -1 14.4332 119.545 2 11 259
1926301N07137 1926 56 WP MM NOT_NAMED 1926-11-07 03:00:00 NR 14.3330 118.999 main 131 131 __________P___ -1 14.3330 118.999 2 11 259
1926301N07137 1926 56 WP MM NOT_NAMED 1926-11-07 06:00:00 NR 14.2330 118.444 main 195 195 __________P___ -1 14.2330 118.444 2 11 260
1926301N07137 1926 56 WP MM NOT_NAMED 1926-11-07 09:00:00 NR 14.1332 117.886 main 249 249 __________P___ -1 14.1332 117.886 2 11 260
1926301N07137 1926 56 WP MM NOT_NAMED 1926-11-07 10:00:00 NR 14.1000 117.700 main 270 270 __________O___ -1 14.1000 117.700 2 10 260
1926301N07137 1926 56 WP MM NOT_NAMED 1926-11-07 12:00:00 NR 14.0432 117.355 main 304 314 __________P___ -1 14.0432 117.355 2 10 260
1926301N07137 1926 56 WP MM NOT_NAMED 1926-11-07 15:00:00 NR 13.9585 116.837 main 366 366 __________P___ -1 13.9585 116.837 2 10 260
1926301N07137 1926 56 WP MM NOT_NAMED 1926-11-07 18:00:00 NR 13.8636 116.297 main 421 421 __________P___ -1 13.8636 116.297 2 11 259
1926301N07137 1926 56 WP MM NOT_NAMED 1926-11-07 21:00:00 NR 13.7463 115.710 main 489 489 __________P___ -1 13.7463 115.710 2 12 258
1926301N07137 1926 56 WP MM NOT_NAMED 1926-11-07 22:00:00 NR 13.7000 115.500 main 507 507 __________O___ -1 13.7000 115.500 2 14 257
1926301N07137 1926 56 WP MM NOT_NAMED 1926-11-08 00:00:00 NR 13.5925 115.032 main 548 523 __________P___ -1 13.5925 115.032 2 15 256
1926301N07137 1926 56 WP MM NOT_NAMED 1926-11-08 03:00:00 NR 13.4058 114.280 main 523 434 __________P___ -1 13.4058 114.280 2 15 255
1926301N07137 1926 56 WP MM NOT_NAMED 1926-11-08 06:00:00 NR 13.1969 113.504 main 434 347 __________P___ -1 13.1969 113.504 2 16 254
1926301N07137 1926 56 WP MM NOT_NAMED 1926-11-08 09:00:00 NR 12.9751 112.743 main 347 325 __________P___ -1 12.9751 112.743 2 15 253
1926301N07137 1926 56 WP MM NOT_NAMED 1926-11-08 10:00:00 NR 12.9000 112.500 main 325 271 __________O___ -1 12.9000 112.500 2 15 252
1926301N07137 1926 56 WP MM NOT_NAMED 1926-11-08 12:00:00 NR 12.7499 112.036 main 271 206 __________P___ -1 12.7499 112.036 2 14 251
1926301N07137 1926 56 WP MM NOT_NAMED 1926-11-08 15:00:00 NR 12.5251 111.386 main 206 145 __________P___ -1 12.5251 111.386 2 13 250
1926301N07137 1926 56 WP MM NOT_NAMED 1926-11-08 18:00:00 NR 12.3003 110.778 main 145 94 __________P___ -1 12.3003 110.778 2 13 249
1926301N07137 1926 56 WP MM NOT_NAMED 1926-11-08 21:00:00 NR 12.0752 110.193 main 94 77 __________P___ -1 12.0752 110.193 2 12 248
1926301N07137 1926 56 WP MM NOT_NAMED 1926-11-08 22:00:00 NR 12.0000 110.000 main 77 __________O___ -1 12.0000 110.000 2 12 249

デジタル台風データ・検索

IBTrACS Databaseについて

本データベースは、米国NOAAが公開する1842年以降の世界の熱帯低気圧のベストトラックデータアーカイブInternational Best Track Archive for Climate Stewardship (IBTrACS)を、ウェブで閲覧しやすい形式に変換したものです。

最終更新日:2021-10-21